createdAt,value
2023-02-02T00:01:51.220Z,99574.06
2023-02-02T00:04:26.375Z,99562.22
2023-02-02T00:06:53.874Z,99581.03
2023-02-02T00:09:21.142Z,99568.22
2023-02-02T00:11:50.304Z,99576.94
2023-02-02T00:14:18.954Z,99582.66
2023-02-02T00:16:50.477Z,99574.00
2023-02-02T00:19:22.322Z,99582.69
2023-02-02T00:21:49.293Z,99578.44
2023-02-02T00:24:18.115Z,99576.84
2023-02-02T00:26:49.634Z,99574.91
2023-02-02T00:29:23.810Z,99580.91
2023-02-02T00:31:51.424Z,99578.16
2023-02-02T00:34:18.910Z,99581.41
2023-02-02T00:36:47.848Z,99570.31
2023-02-02T00:39:21.463Z,99588.78
2023-02-02T00:41:48.914Z,99563.44
2023-02-02T00:44:34.684Z,99576.38
2023-02-02T00:47:02.788Z,99577.44
2023-02-02T00:49:30.194Z,99582.84
2023-02-02T00:51:57.184Z,99583.53
2023-02-02T00:54:24.599Z,99581.81
2023-02-02T00:56:51.477Z,99580.13
2023-02-02T00:59:18.380Z,99589.59
2023-02-02T01:01:45.603Z,99577.56
2023-02-02T01:04:12.502Z,99589.53
2023-02-02T01:06:40.362Z,99599.56
2023-02-02T01:09:08.574Z,99590.38
2023-02-02T01:11:35.544Z,99600.63
2023-02-02T01:14:03.989Z,99596.44
2023-02-02T01:16:31.167Z,99594.56
2023-02-02T01:18:58.074Z,99589.59
2023-02-02T01:21:24.950Z,99603.09
2023-02-02T01:23:51.815Z,99597.91
2023-02-02T01:26:18.755Z,99606.31
2023-02-02T01:28:46.328Z,99597.91
2023-02-02T01:31:19.531Z,99599.56
2023-02-02T01:33:48.467Z,99601.22
2023-02-02T01:36:19.657Z,99602.94
2023-02-02T01:38:47.685Z,99602.72
2023-02-02T01:41:21.266Z,99618.03
2023-02-02T01:43:49.232Z,99615.44
2023-02-02T01:46:23.575Z,99612.81
2023-02-02T01:48:56.464Z,99613.66
2023-02-02T01:51:31.128Z,99624.16
2023-02-02T01:54:00.576Z,99619.91
2023-02-02T01:56:35.527Z,99619.84
2023-02-02T01:59:03.660Z,99624.78
2023-02-02T02:01:30.762Z,99623.13
2023-02-02T02:03:57.942Z,99612.06
2023-02-02T02:06:26.609Z,99624.69
2023-02-02T02:09:06.014Z,99637.41
2023-02-02T02:11:35.846Z,99636.53
2023-02-02T02:14:28.984Z,99634.66
2023-02-02T02:17:42.301Z,99636.22
2023-02-02T02:21:05.847Z,99631.97
2023-02-02T02:24:33.284Z,99641.13
2023-02-02T02:27:57.594Z,99644.41
2023-02-02T02:31:02.352Z,99641.13
2023-02-02T02:33:46.772Z,99638.34
2023-02-02T02:36:27.026Z,99648.66
2023-02-02T02:39:17.883Z,99651.38
2023-02-02T02:41:52.918Z,99653.81
2023-02-02T02:44:21.914Z,99658.06
2023-02-02T02:46:50.057Z,99649.44
2023-02-02T02:49:18.204Z,99645.97
2023-02-02T02:51:51.151Z,99659.78
2023-02-02T02:54:43.177Z,99660.63
2023-02-02T02:57:49.872Z,99660.03
2023-02-02T03:00:48.572Z,99660.09
2023-02-02T03:03:25.044Z,99655.06
2023-02-02T03:06:27.822Z,99659.25
2023-02-02T03:08:58.557Z,99654.38
2023-02-02T03:11:25.678Z,99655.22
2023-02-02T03:13:52.935Z,99645.97
2023-02-02T03:16:19.910Z,99659.56
2023-02-02T03:18:46.938Z,99663.03
2023-02-02T03:21:13.805Z,99657.13
2023-02-02T03:23:41.074Z,99665.50
2023-02-02T03:26:08.291Z,99661.25
2023-02-02T03:28:35.986Z,99675.69
2023-02-02T03:31:03.325Z,99667.31
2023-02-02T03:33:33.017Z,99665.50
2023-02-02T03:36:00.111Z,99670.75
2023-02-02T03:38:27.145Z,99672.56
2023-02-02T03:40:54.091Z,99665.75
2023-02-02T03:43:22.987Z,99670.75
2023-02-02T03:46:01.878Z,99679.22
2023-02-02T03:48:28.828Z,99685.25
2023-02-02T03:50:56.234Z,99678.50
2023-02-02T03:53:23.664Z,99680.94
2023-02-02T03:55:50.553Z,99674.13
2023-02-02T03:58:17.647Z,99664.06
2023-02-02T04:00:44.505Z,99683.59
2023-02-02T04:03:11.412Z,99671.72
2023-02-02T04:05:38.217Z,99679.34
2023-02-02T04:08:05.396Z,99684.47
2023-02-02T04:10:32.230Z,99682.75
2023-02-02T04:12:59.210Z,99679.22
2023-02-02T04:15:26.638Z,99689.44
2023-02-02T04:17:53.667Z,99680.25
2023-02-02T04:20:21.066Z,99692.25
2023-02-02T04:22:48.008Z,99688.94
2023-02-02T04:25:14.840Z,99690.66
2023-02-02T04:27:41.649Z,99694.09
2023-02-02T04:30:09.649Z,99695.09
2023-02-02T04:32:36.542Z,99691.63
2023-02-02T04:35:03.865Z,99703.69
2023-02-02T04:37:32.319Z,99695.22
2023-02-02T04:39:59.259Z,99698.66
2023-02-02T04:42:26.329Z,99709.81
2023-02-02T04:44:53.200Z,99703.03
2023-02-02T04:47:20.048Z,99704.69
2023-02-02T04:49:46.878Z,99712.41
2023-02-02T04:52:13.778Z,99704.81
2023-02-02T04:54:40.624Z,99697.31
2023-02-02T04:57:07.486Z,99690.53
2023-02-02T04:59:34.359Z,99699.94
2023-02-02T05:02:03.323Z,99693.94
2023-02-02T05:04:30.190Z,99694.66
2023-02-02T05:06:57.103Z,99695.50
2023-02-02T05:09:23.978Z,99698.13
2023-02-02T05:11:50.839Z,99689.69
2023-02-02T05:14:18.543Z,99697.44
2023-02-02T05:16:45.542Z,99693.19
2023-02-02T05:19:13.090Z,99696.59
2023-02-02T05:21:39.974Z,99700.91
2023-02-02T05:24:06.949Z,99704.31
2023-02-02T05:26:33.869Z,99706.00
2023-02-02T05:29:00.774Z,99705.94
2023-02-02T05:31:27.729Z,99710.22
2023-02-02T05:33:54.567Z,99706.91
2023-02-02T05:36:21.517Z,99711.06
2023-02-02T05:38:48.558Z,99718.72
2023-02-02T05:41:15.450Z,99707.81
2023-02-02T05:43:42.321Z,99716.28
2023-02-02T05:46:09.225Z,99714.41
2023-02-02T05:48:36.050Z,99713.38
2023-02-02T05:51:15.959Z,99708.16
2023-02-02T05:53:45.031Z,99714.88
2023-02-02T05:56:13.526Z,99724.13
2023-02-02T05:58:40.453Z,99722.38
2023-02-02T06:01:07.691Z,99722.22
2023-02-02T06:03:34.768Z,99722.00
2023-02-02T06:06:01.806Z,99727.88
2023-02-02T06:08:28.787Z,99733.50
2023-02-02T06:10:55.647Z,99737.03
2023-02-02T06:13:23.058Z,99734.09
2023-02-02T06:15:49.997Z,99743.31
2023-02-02T06:18:17.168Z,99748.34
2023-02-02T06:20:44.186Z,99741.41
2023-02-02T06:23:11.057Z,99763.28
2023-02-02T06:25:37.974Z,99757.28
2023-02-02T06:28:05.035Z,99768.38
2023-02-02T06:30:31.967Z,99780.06
2023-02-02T06:32:59.547Z,99786.72
2023-02-02T06:35:27.046Z,99774.59
2023-02-02T06:37:54.301Z,99787.38
2023-02-02T06:40:21.363Z,99786.28
2023-02-02T06:42:48.331Z,99777.88
2023-02-02T06:45:15.191Z,99788.63
2023-02-02T06:47:42.074Z,99801.44
2023-02-02T06:50:10.087Z,99792.06
2023-02-02T06:52:36.926Z,99791.38
2023-02-02T06:55:03.902Z,99802.50
2023-02-02T06:57:30.801Z,99794.72
2023-02-02T06:59:57.640Z,99806.53
2023-02-02T07:02:24.548Z,99807.31
2023-02-02T07:04:51.580Z,99812.03
2023-02-02T07:07:18.574Z,99809.38
2023-02-02T07:09:45.410Z,99816.34
2023-02-02T07:12:12.343Z,99815.41
2023-02-02T07:14:39.219Z,99810.22
2023-02-02T07:17:06.174Z,99816.19
2023-02-02T07:19:33.646Z,99816.09
2023-02-02T07:22:00.874Z,99814.34
2023-02-02T07:24:27.807Z,99823.50
2023-02-02T07:26:55.193Z,99815.78
2023-02-02T07:29:22.040Z,99825.97
2023-02-02T07:31:48.942Z,99825.06
2023-02-02T07:34:15.885Z,99828.53
2023-02-02T07:36:42.956Z,99820.19
2023-02-02T07:39:11.521Z,99824.59
2023-02-02T07:41:38.994Z,99829.69
2023-02-02T07:44:15.528Z,99822.81
2023-02-02T07:46:44.627Z,99825.16
2023-02-02T07:49:17.581Z,99832.91
2023-02-02T07:51:47.771Z,99827.81
2023-02-02T07:54:15.729Z,99828.75
2023-02-02T07:56:42.575Z,99839.63
2023-02-02T07:59:11.222Z,99834.56
2023-02-02T08:01:38.433Z,99843.09
2023-02-02T08:04:05.365Z,99848.06
2023-02-02T08:06:35.856Z,99846.41
2023-02-02T08:09:07.660Z,99852.38
2023-02-02T08:11:37.290Z,99852.97
2023-02-02T08:14:05.325Z,99859.50
2023-02-02T08:16:33.844Z,99862.91
2023-02-02T08:19:01.177Z,99864.69
2023-02-02T08:21:28.221Z,99862.06
2023-02-02T08:23:55.278Z,99867.19
2023-02-02T08:26:26.702Z,99869.47
2023-02-02T08:28:59.780Z,99874.16
2023-02-02T08:31:34.183Z,99883.53
2023-02-02T08:34:02.089Z,99878.34
2023-02-02T08:36:31.119Z,99885.06
2023-02-02T08:39:11.408Z,99886.63
2023-02-02T08:41:38.452Z,99889.25
2023-02-02T08:44:11.890Z,99885.00
2023-02-02T08:46:38.897Z,99890.78
2023-02-02T08:49:05.752Z,99894.88
2023-02-02T08:51:32.864Z,99893.31
2023-02-02T08:53:59.701Z,99900.72
2023-02-02T08:56:26.677Z,99910.88
2023-02-02T08:58:58.152Z,99909.88
2023-02-02T09:01:28.834Z,99908.94
2023-02-02T09:04:21.913Z,99911.44
2023-02-02T09:06:48.928Z,99917.63
2023-02-02T09:09:16.554Z,99918.50
2023-02-02T09:11:44.454Z,99914.34
2023-02-02T09:14:14.595Z,99920.47
2023-02-02T09:16:41.948Z,99921.41
2023-02-02T09:19:11.732Z,99923.78
2023-02-02T09:21:38.608Z,99929.63
2023-02-02T09:24:12.000Z,99926.38
2023-02-02T09:26:40.367Z,99935.72
2023-02-02T09:29:12.013Z,99934.03
2023-02-02T09:31:39.475Z,99941.97
2023-02-02T09:34:10.773Z,99940.34
2023-02-02T09:36:39.186Z,99948.69
2023-02-02T09:39:07.108Z,99949.50
2023-02-02T09:41:40.430Z,99952.03
2023-02-02T09:44:41.509Z,99956.53
2023-02-02T09:47:20.511Z,99962.09
2023-02-02T09:49:56.247Z,99962.44
2023-02-02T09:52:30.101Z,99962.63
2023-02-02T09:55:13.925Z,99967.81
2023-02-02T09:57:52.648Z,99974.56
2023-02-02T10:00:36.507Z,99975.59
2023-02-02T10:03:21.125Z,99974.78
2023-02-02T10:06:28.542Z,99978.16
2023-02-02T10:09:26.368Z,99969.16
2023-02-02T10:12:16.839Z,99971.41
2023-02-02T10:14:58.085Z,99977.38
2023-02-02T10:17:52.786Z,99974.25
2023-02-02T10:20:32.289Z,99985.19
2023-02-02T10:23:13.040Z,99981.72
2023-02-02T10:25:55.619Z,99987.09
2023-02-02T10:28:41.581Z,99986.91
2023-02-02T10:31:28.323Z,99987.44
2023-02-02T10:34:09.847Z,99995.38
2023-02-02T10:37:00.107Z,99990.38
2023-02-02T10:40:02.549Z,100001.25
2023-02-02T10:43:47.835Z,99989.13
2023-02-02T10:47:09.441Z,99993.63
2023-02-02T10:49:39.406Z,99999.53
2023-02-02T10:52:20.830Z,100000.47
2023-02-02T10:54:58.671Z,100002.44
2023-02-02T10:58:09.294Z,100001.63
2023-02-02T11:00:46.236Z,100015.16
2023-02-02T11:03:16.667Z,100016.09
2023-02-02T11:06:02.382Z,100017.88
2023-02-02T11:08:43.601Z,100005.06
2023-02-02T11:11:29.332Z,100016.25
2023-02-02T11:14:11.655Z,100008.63
2023-02-02T11:16:44.664Z,100015.34
2023-02-02T11:19:36.231Z,100021.44
2023-02-02T11:22:04.966Z,100021.34
2023-02-02T11:24:49.886Z,100026.31
2023-02-02T11:27:39.557Z,100028.06
2023-02-02T11:30:35.869Z,100024.59
2023-02-02T11:33:27.070Z,100036.78
2023-02-02T11:36:00.452Z,100035.00
2023-02-02T11:38:29.001Z,100033.34
2023-02-02T11:41:02.353Z,100031.69
2023-02-02T11:43:30.707Z,100027.66
2023-02-02T11:46:24.399Z,100027.72
2023-02-02T11:49:14.798Z,100030.22
2023-02-02T11:51:42.691Z,100035.81
2023-02-02T11:54:29.371Z,100036.56
2023-02-02T11:57:01.336Z,100034.28
2023-02-02T11:59:39.411Z,100041.81
2023-02-02T12:02:30.050Z,100039.38
2023-02-02T12:05:33.545Z,100043.63
2023-02-02T12:08:01.100Z,100044.59
2023-02-02T12:10:57.926Z,100050.88
2023-02-02T12:14:03.361Z,100046.25
2023-02-02T12:16:53.408Z,100062.31
2023-02-02T12:19:27.989Z,100053.97
2023-02-02T12:22:03.752Z,100058.13
2023-02-02T12:25:09.305Z,100047.69
2023-02-02T12:27:57.368Z,100052.00
2023-02-02T12:30:44.633Z,100048.56
2023-02-02T12:33:51.161Z,100050.28
2023-02-02T12:36:17.908Z,100038.72
2023-02-02T12:39:02.637Z,100034.72
2023-02-02T12:42:25.738Z,100047.22
2023-02-02T12:45:23.099Z,100048.69
2023-02-02T12:48:32.808Z,100050.19
2023-02-02T12:51:31.501Z,100041.81
2023-02-02T12:54:35.011Z,100047.91
2023-02-02T12:57:33.812Z,100039.63
2023-02-02T13:00:35.247Z,100044.75
2023-02-02T13:03:26.436Z,100048.97
2023-02-02T13:06:15.939Z,100044.06
2023-02-02T13:08:58.031Z,100045.59
2023-02-02T13:11:40.564Z,100043.91
2023-02-02T13:14:13.108Z,100048.91
2023-02-02T13:16:48.521Z,100054.81
2023-02-02T13:19:45.062Z,100049.16
2023-02-02T13:22:27.956Z,100053.78
2023-02-02T13:25:01.278Z,100051.19
2023-02-02T13:27:30.653Z,100059.66
2023-02-02T13:30:22.874Z,100060.44
2023-02-02T13:32:53.260Z,100060.91
2023-02-02T13:35:38.595Z,100058.75
2023-02-02T13:38:30.649Z,100064.06
2023-02-02T13:41:03.815Z,100061.84
2023-02-02T13:43:59.805Z,100070.63
2023-02-02T13:47:09.123Z,100063.47
2023-02-02T13:49:47.200Z,100072.16
2023-02-02T13:52:37.139Z,100084.53
2023-02-02T13:55:39.142Z,100071.56
2023-02-02T13:58:40.074Z,100073.19
2023-02-02T14:01:11.773Z,100073.88
2023-02-02T14:03:56.644Z,100075.31
2023-02-02T14:06:26.440Z,100076.19
2023-02-02T14:09:05.630Z,100074.47
2023-02-02T14:11:37.369Z,100080.47
2023-02-02T14:14:33.395Z,100083.13
2023-02-02T14:17:11.542Z,100090.41
2023-02-02T14:19:54.657Z,100103.00
2023-02-02T14:22:51.469Z,100098.81
2023-02-02T14:25:33.399Z,100105.50
2023-02-02T14:28:12.742Z,100107.19
2023-02-02T14:30:40.632Z,100107.19
2023-02-02T14:33:22.439Z,100116.25
2023-02-02T14:35:49.273Z,100111.03
2023-02-02T14:38:53.549Z,100112.22
2023-02-02T14:42:00.766Z,100118.09
2023-02-02T14:44:28.734Z,100126.66
2023-02-02T14:46:55.773Z,100118.09
2023-02-02T14:49:27.350Z,100127.25
2023-02-02T14:51:59.650Z,100139.34
2023-02-02T14:54:35.878Z,100141.84
2023-02-02T14:57:26.601Z,100130.91
2023-02-02T14:59:55.499Z,100141.94
2023-02-02T15:02:35.224Z,100140.19
2023-02-02T15:05:38.687Z,100145.44
2023-02-02T15:08:27.116Z,100135.94
2023-02-02T15:11:00.530Z,100141.09
2023-02-02T15:13:37.532Z,100143.47
2023-02-02T15:16:22.825Z,100146.94
2023-02-02T15:19:00.150Z,100141.53
2023-02-02T15:21:29.327Z,100146.56
2023-02-02T15:23:56.669Z,100148.34
2023-02-02T15:26:34.216Z,100151.81
2023-02-02T15:29:08.690Z,100152.75
2023-02-02T15:31:51.798Z,100145.00
2023-02-02T15:34:43.464Z,100140.78
2023-02-02T15:37:23.573Z,100158.53
2023-02-02T15:39:59.856Z,100164.47
2023-02-02T15:42:54.502Z,100178.72
2023-02-02T15:45:52.332Z,100185.44
2023-02-02T15:48:29.931Z,100172.31
2023-02-02T15:51:05.146Z,100179.22
2023-02-02T15:53:44.074Z,100182.94
2023-02-02T15:56:23.568Z,100183.13
2023-02-02T15:58:54.568Z,100186.56
2023-02-02T16:01:29.294Z,100182.34
2023-02-02T16:04:08.496Z,100188.47
2023-02-02T16:06:35.991Z,100189.44
2023-02-02T16:09:05.098Z,100189.50
2023-02-02T16:11:32.016Z,100198.94
2023-02-02T16:14:13.969Z,100194.66
2023-02-02T16:16:41.965Z,100201.69
2023-02-02T16:19:08.864Z,100209.41
2023-02-02T16:21:43.844Z,100212.13
2023-02-02T16:24:18.888Z,100218.94
2023-02-02T16:26:46.376Z,100216.13
2023-02-02T16:29:19.173Z,100228.00
2023-02-02T16:31:48.349Z,100224.69
2023-02-02T16:34:35.829Z,100223.88
2023-02-02T16:37:15.287Z,100212.06
2023-02-02T16:39:42.658Z,100214.69
2023-02-02T16:42:23.565Z,100212.97
2023-02-02T16:44:50.460Z,100215.47
2023-02-02T16:47:26.508Z,100219.75
2023-02-02T16:50:08.639Z,100216.34
2023-02-02T16:52:55.804Z,100212.88
2023-02-02T16:55:24.324Z,100216.13
2023-02-02T16:57:52.293Z,100217.88
2023-02-02T17:00:23.301Z,100223.75
2023-02-02T17:03:07.054Z,100221.44
2023-02-02T17:05:49.604Z,100216.97
2023-02-02T17:08:33.745Z,100218.94
2023-02-02T17:11:26.331Z,100221.22
2023-02-02T17:13:54.931Z,100206.25
2023-02-02T17:16:24.469Z,100203.13
2023-02-02T17:18:51.903Z,100202.78
2023-02-02T17:21:24.099Z,100216.34
2023-02-02T17:23:54.375Z,100226.53
2023-02-02T17:26:21.424Z,100215.47
2023-02-02T17:28:50.897Z,100224.47
2023-02-02T17:31:18.715Z,100216.97
2023-02-02T17:33:45.862Z,100226.09
2023-02-02T17:36:13.686Z,100220.66
2023-02-02T17:38:40.718Z,100219.78
2023-02-02T17:41:10.339Z,100217.28
2023-02-02T17:43:37.271Z,100221.00
2023-02-02T17:46:04.591Z,100214.91
2023-02-02T17:48:31.524Z,100217.72
2023-02-02T17:50:58.472Z,100218.63
2023-02-02T17:53:25.362Z,100226.00
2023-02-02T17:55:53.320Z,100219.03
2023-02-02T17:58:20.465Z,100212.44
2023-02-02T18:00:53.857Z,100203.75
2023-02-02T18:03:33.942Z,100204.97
2023-02-02T18:06:01.820Z,100203.06
2023-02-02T18:08:30.568Z,100208.09
2023-02-02T18:10:58.110Z,100202.13
2023-02-02T18:13:25.834Z,100195.19
2023-02-02T18:15:55.057Z,100207.09
2023-02-02T18:18:22.647Z,100206.34
2023-02-02T18:20:51.338Z,100204.84
2023-02-02T18:23:19.445Z,100199.00
2023-02-02T18:25:46.512Z,100200.34
2023-02-02T18:28:17.210Z,100200.94
2023-02-02T18:30:46.189Z,100199.22
2023-02-02T18:33:14.717Z,100192.25
2023-02-02T18:35:43.508Z,100201.06
2023-02-02T18:38:10.931Z,100193.00
2023-02-02T18:40:38.339Z,100189.88
2023-02-02T18:43:05.683Z,100189.22
2023-02-02T18:45:32.922Z,100182.41
2023-02-02T18:47:59.771Z,100176.38
2023-02-02T18:50:26.739Z,100168.97
2023-02-02T18:52:53.712Z,100181.09
2023-02-02T18:55:20.722Z,100176.72
2023-02-02T18:57:47.608Z,100175.19
2023-02-02T19:00:15.765Z,100175.53
2023-02-02T19:02:42.606Z,100171.94
2023-02-02T19:05:28.471Z,100177.81
2023-02-02T19:07:55.581Z,100176.97
2023-02-02T19:10:25.037Z,100176.56
2023-02-02T19:13:19.419Z,100181.88
2023-02-02T19:15:49.591Z,100183.78
2023-02-02T19:18:22.976Z,100177.75
2023-02-02T19:20:51.691Z,100173.78
2023-02-02T19:23:25.571Z,100173.56
2023-02-02T19:25:54.276Z,100170.31
2023-02-02T19:28:30.877Z,100173.56
2023-02-02T19:31:01.103Z,100166.91
2023-02-02T19:33:41.003Z,100173.88
2023-02-02T19:36:15.331Z,100167.16
2023-02-02T19:38:42.699Z,100168.69
2023-02-02T19:41:24.304Z,100172.19
2023-02-02T19:44:11.363Z,100172.72
2023-02-02T19:46:46.003Z,100165.31
2023-02-02T19:49:36.020Z,100168.69
2023-02-02T19:52:04.234Z,100169.41
2023-02-02T19:54:37.052Z,100161.06
2023-02-02T19:57:11.083Z,100167.78
2023-02-02T19:59:38.122Z,100160.28
2023-02-02T20:02:37.932Z,100161.31
2023-02-02T20:05:10.923Z,100165.63
2023-02-02T20:07:41.214Z,100159.75
2023-02-02T20:10:39.578Z,100162.75
2023-02-02T20:13:21.594Z,100159.25
2023-02-02T20:15:51.838Z,100149.88
2023-02-02T20:18:26.598Z,100155.09
2023-02-02T20:20:57.261Z,100148.50
2023-02-02T20:23:42.979Z,100156.09
2023-02-02T20:26:34.770Z,100156.19
2023-02-02T20:29:20.339Z,100152.00
2023-02-02T20:31:48.980Z,100144.56
2023-02-02T20:34:32.745Z,100139.84
2023-02-02T20:37:31.864Z,100141.78
2023-02-02T20:40:21.570Z,100138.41
2023-02-02T20:42:49.516Z,100134.13
2023-02-02T20:45:17.756Z,100136.03
2023-02-02T20:47:45.742Z,100145.72
2023-02-02T20:50:15.672Z,100135.72
2023-02-02T20:52:43.101Z,100132.56
2023-02-02T20:55:11.082Z,100131.06
2023-02-02T20:57:40.213Z,100146.28
2023-02-02T21:00:11.134Z,100145.69
2023-02-02T21:02:38.259Z,100135.47
2023-02-02T21:05:05.699Z,100137.22
2023-02-02T21:07:32.880Z,100134.72
2023-02-02T21:09:59.763Z,100135.69
2023-02-02T21:12:26.830Z,100136.72
2023-02-02T21:14:54.502Z,100140.06
2023-02-02T21:17:21.486Z,100136.72
2023-02-02T21:19:48.408Z,100130.81
2023-02-02T21:22:15.465Z,100126.50
2023-02-02T21:24:42.628Z,100130.81
2023-02-02T21:27:10.069Z,100135.19
2023-02-02T21:29:37.937Z,100136.03
2023-02-02T21:32:05.544Z,100137.75
2023-02-02T21:34:33.326Z,100133.41
2023-02-02T21:37:00.364Z,100134.47
2023-02-02T21:39:34.590Z,100125.91
2023-02-02T21:42:20.631Z,100131.94
2023-02-02T21:44:58.370Z,100130.19
2023-02-02T21:47:34.942Z,100133.72
2023-02-02T21:50:15.414Z,100134.47
2023-02-02T21:52:42.709Z,100146.50
2023-02-02T21:55:35.569Z,100138.00
2023-02-02T21:58:25.453Z,100140.59
2023-02-02T22:00:56.724Z,100132.81
2023-02-02T22:03:34.732Z,100144.00
2023-02-02T22:06:04.616Z,100136.44
2023-02-02T22:08:37.121Z,100138.19
2023-02-02T22:11:09.429Z,100133.13
2023-02-02T22:13:36.380Z,100138.34
2023-02-02T22:16:03.471Z,100128.06
2023-02-02T22:18:32.510Z,100136.66
2023-02-02T22:20:59.720Z,100127.34
2023-02-02T22:23:29.515Z,100133.34
2023-02-02T22:25:58.560Z,100128.22
2023-02-02T22:28:36.725Z,100137.66
2023-02-02T22:31:05.048Z,100135.91
2023-02-02T22:33:32.055Z,100135.16
2023-02-02T22:35:58.955Z,100136.00
2023-02-02T22:38:25.888Z,100135.13
2023-02-02T22:40:53.365Z,100125.66
2023-02-02T22:43:21.711Z,100124.75
2023-02-02T22:45:49.231Z,100125.56
2023-02-02T22:48:16.976Z,100136.00
2023-02-02T22:50:43.919Z,100127.41
2023-02-02T22:53:10.944Z,100121.50
2023-02-02T22:55:37.872Z,100119.75
2023-02-02T22:58:04.664Z,100118.16
2023-02-02T23:00:36.083Z,100113.03
2023-02-02T23:03:03.074Z,100103.63
2023-02-02T23:05:30.222Z,100107.91
2023-02-02T23:07:57.247Z,100094.22
2023-02-02T23:10:27.933Z,100082.19
2023-02-02T23:12:58.444Z,100091.03
2023-02-02T23:15:26.089Z,100092.69
2023-02-02T23:17:53.461Z,100087.63
2023-02-02T23:20:20.977Z,100095.31
2023-02-02T23:22:47.818Z,100102.06
2023-02-02T23:25:15.533Z,100097.88
2023-02-02T23:27:42.758Z,100113.41
2023-02-02T23:30:11.887Z,100118.41
2023-02-02T23:32:38.597Z,100112.44
2023-02-02T23:35:10.352Z,100108.19
2023-02-02T23:37:37.895Z,100095.41
2023-02-02T23:40:05.560Z,100092.88
2023-02-02T23:42:33.640Z,100096.31
2023-02-02T23:45:00.486Z,100096.53
2023-02-02T23:47:27.513Z,100089.59
2023-02-02T23:49:54.589Z,100067.31
2023-02-02T23:52:21.423Z,100057.91
2023-02-02T23:54:48.440Z,100066.47
2023-02-02T23:57:15.398Z,100058.75
2023-02-02T23:59:42.277Z,100049.25
